createdAt,value
2018-06-10T00:01:33.136Z,99.90
2018-06-10T00:04:03.706Z,99.90
2018-06-10T00:06:34.587Z,99.90
2018-06-10T00:09:07.932Z,99.90
2018-06-10T00:11:39.429Z,99.90
2018-06-10T00:14:10.055Z,99.90
2018-06-10T00:16:40.684Z,99.90
2018-06-10T00:19:11.315Z,99.90
2018-06-10T00:21:42.053Z,99.90
2018-06-10T00:24:12.924Z,99.90
2018-06-10T00:26:43.603Z,99.90
2018-06-10T00:29:19.326Z,99.90
2018-06-10T00:31:51.420Z,99.90
2018-06-10T00:34:22.844Z,99.90
2018-06-10T00:36:54.175Z,99.90
2018-06-10T00:39:24.865Z,99.90
2018-06-10T00:41:55.596Z,99.90
2018-06-10T00:44:26.310Z,99.90
2018-06-10T00:46:56.995Z,99.90
2018-06-10T00:49:28.898Z,99.90
2018-06-10T00:51:59.548Z,99.90
2018-06-10T00:54:30.442Z,99.90
2018-06-10T00:57:01.090Z,99.90
2018-06-10T00:59:31.850Z,99.90
2018-06-10T01:02:02.705Z,99.90
2018-06-10T01:04:33.441Z,99.90
2018-06-10T01:07:04.150Z,99.90
2018-06-10T01:09:34.913Z,99.90
2018-06-10T01:12:05.729Z,99.90
2018-06-10T01:14:37.151Z,99.90
2018-06-10T01:17:07.677Z,99.90
2018-06-10T01:19:39.844Z,99.90
2018-06-10T01:22:10.419Z,99.90
2018-06-10T01:24:41.211Z,99.90
2018-06-10T01:27:11.933Z,99.90
2018-06-10T01:29:42.560Z,99.90
2018-06-10T01:32:13.221Z,99.90
2018-06-10T01:34:44.393Z,99.90
2018-06-10T01:37:15.398Z,99.90
2018-06-10T01:39:45.976Z,99.90
2018-06-10T01:42:17.365Z,99.90
2018-06-10T01:44:48.124Z,99.90
2018-06-10T01:47:18.732Z,99.90
2018-06-10T01:49:49.309Z,99.90
2018-06-10T01:52:20.053Z,99.90
2018-06-10T01:54:51.520Z,99.90
2018-06-10T01:57:22.251Z,99.90
2018-06-10T01:59:53.028Z,99.90
2018-06-10T02:02:23.598Z,99.90
2018-06-10T02:04:54.587Z,99.90
2018-06-10T02:07:25.296Z,99.90
2018-06-10T02:09:55.893Z,99.90
2018-06-10T02:12:33.730Z,99.90
2018-06-10T02:15:05.680Z,99.90
2018-06-10T02:17:36.245Z,99.90
2018-06-10T02:20:10.914Z,99.90
2018-06-10T02:22:42.290Z,99.90
2018-06-10T02:25:12.917Z,99.90
2018-06-10T02:27:44.458Z,99.90
2018-06-10T02:30:15.289Z,99.90
2018-06-10T02:32:46.339Z,99.90
2018-06-10T02:35:16.941Z,99.90
2018-06-10T02:37:48.208Z,99.90
2018-06-10T02:40:20.225Z,99.90
2018-06-10T02:42:50.900Z,99.90
2018-06-10T02:45:23.554Z,99.90
2018-06-10T02:47:54.786Z,99.90
2018-06-10T02:50:25.669Z,99.90
2018-06-10T02:52:56.788Z,99.90
2018-06-10T02:57:57.661Z,99.90
2018-06-10T03:00:28.528Z,99.90
2018-06-10T03:02:59.105Z,99.90
2018-06-10T03:05:29.687Z,99.90
2018-06-10T03:08:00.283Z,99.90
2018-06-10T03:10:30.898Z,99.90
2018-06-10T03:13:01.537Z,99.90
2018-06-10T03:15:32.297Z,99.90
2018-06-10T03:18:02.950Z,99.90
2018-06-10T03:20:33.581Z,99.90
2018-06-10T03:23:04.191Z,99.90
2018-06-10T03:25:34.920Z,99.90
2018-06-10T03:28:05.656Z,99.90
2018-06-10T03:30:36.296Z,99.90
2018-06-10T03:33:06.860Z,99.90
2018-06-10T03:35:38.429Z,99.90
2018-06-10T03:38:09.031Z,99.90
2018-06-10T03:40:39.557Z,99.90
2018-06-10T03:43:10.209Z,99.90
2018-06-10T03:45:43.981Z,99.90
2018-06-10T03:48:16.853Z,99.90
2018-06-10T03:50:47.693Z,99.90
2018-06-10T03:53:18.297Z,99.90
2018-06-10T03:55:48.759Z,99.90
2018-06-10T03:58:19.379Z,99.90
2018-06-10T04:03:20.185Z,99.90
2018-06-10T04:05:51.262Z,99.90
2018-06-10T04:08:21.899Z,99.90
2018-06-10T04:10:56.176Z,99.90
2018-06-10T04:13:27.945Z,99.90
2018-06-10T04:15:59.534Z,99.90
2018-06-10T04:18:30.330Z,99.90
2018-06-10T04:21:00.892Z,99.90
2018-06-10T04:23:31.644Z,99.90
2018-06-10T04:26:02.217Z,99.90
2018-06-10T04:28:33.823Z,99.90
2018-06-10T04:31:05.771Z,99.90
2018-06-10T04:36:07.028Z,99.90
2018-06-10T04:38:37.779Z,99.90
2018-06-10T04:41:08.604Z,99.90
2018-06-10T04:43:39.166Z,99.90
2018-06-10T04:46:09.853Z,99.90
2018-06-10T04:48:40.414Z,99.90
2018-06-10T04:51:11.049Z,99.90
2018-06-10T04:53:42.457Z,99.90
2018-06-10T04:56:17.496Z,99.90
2018-06-10T04:58:48.041Z,99.90
2018-06-10T05:01:19.313Z,99.90
2018-06-10T05:03:50.741Z,99.90
2018-06-10T05:06:21.216Z,99.90
2018-06-10T05:08:52.013Z,99.90
2018-06-10T05:11:26.071Z,99.90
2018-06-10T05:13:57.925Z,99.90
2018-06-10T05:16:28.619Z,99.90
2018-06-10T05:18:59.491Z,99.90
2018-06-10T05:21:30.333Z,99.90
2018-06-10T05:24:07.428Z,99.90
2018-06-10T05:26:38.188Z,99.90
2018-06-10T05:29:08.716Z,99.90
2018-06-10T05:31:39.588Z,99.90
2018-06-10T05:34:10.249Z,99.90
2018-06-10T05:36:40.998Z,99.90
2018-06-10T05:39:11.718Z,99.90
2018-06-10T05:41:43.180Z,99.90
2018-06-10T05:44:13.973Z,99.90
2018-06-10T05:46:44.743Z,99.90
2018-06-10T05:49:15.948Z,99.90
2018-06-10T05:51:46.748Z,99.90
2018-06-10T05:54:17.448Z,99.90
2018-06-10T05:56:48.145Z,99.90
2018-06-10T05:59:19.608Z,99.90
2018-06-10T06:01:51.131Z,99.90
2018-06-10T06:04:21.830Z,99.90
2018-06-10T06:06:54.014Z,99.90
2018-06-10T06:09:26.104Z,99.90
2018-06-10T06:11:56.759Z,99.90
2018-06-10T06:14:27.925Z,99.90
2018-06-10T06:16:58.772Z,99.90
2018-06-10T06:19:29.362Z,99.90
2018-06-10T06:21:59.892Z,99.90
2018-06-10T06:24:30.425Z,98.50
2018-06-10T06:27:01.246Z,93.50
2018-06-10T06:29:31.952Z,89.90
2018-06-10T06:32:03.113Z,82.40
2018-06-10T06:34:33.637Z,78.40
2018-06-10T06:37:04.221Z,77.40
2018-06-10T06:39:34.847Z,80.50
2018-06-10T06:42:05.480Z,73.80
2018-06-10T06:44:35.937Z,74.40
2018-06-10T06:47:06.508Z,70.20
2018-06-10T06:49:37.662Z,64.80
2018-06-10T06:52:09.210Z,58.70
2018-06-10T06:54:41.118Z,59.40
2018-06-10T06:57:12.791Z,54.20
2018-06-10T06:59:43.343Z,50.50
2018-06-10T07:02:13.948Z,49.50
2018-06-10T07:04:44.633Z,47.90
2018-06-10T07:07:15.321Z,50.50
2018-06-10T07:09:46.028Z,48.70
2018-06-10T07:12:16.647Z,49.30
2018-06-10T07:14:47.426Z,46.40
2018-06-10T07:17:18.988Z,45.80
2018-06-10T07:19:49.632Z,44.60
2018-06-10T07:22:20.227Z,42.90
2018-06-10T07:24:50.820Z,42.10
2018-06-10T07:27:21.600Z,41.80
2018-06-10T07:29:52.360Z,42.80
2018-06-10T07:32:23.485Z,40.90
2018-06-10T07:34:54.097Z,41.40
2018-06-10T07:37:24.715Z,40.10
2018-06-10T07:39:55.965Z,39.00
2018-06-10T07:42:26.618Z,39.60
2018-06-10T07:44:57.104Z,37.70
2018-06-10T07:47:27.802Z,38.60
2018-06-10T07:49:58.782Z,39.50
2018-06-10T07:52:29.486Z,38.60
2018-06-10T07:55:00.046Z,37.80
2018-06-10T07:57:30.778Z,38.30
2018-06-10T08:00:02.268Z,37.20
2018-06-10T08:02:33.058Z,36.90
2018-06-10T08:05:03.587Z,37.20
2018-06-10T08:07:34.533Z,39.00
2018-06-10T08:10:05.354Z,40.90
2018-06-10T08:12:35.975Z,43.10
2018-06-10T08:15:08.313Z,41.90
2018-06-10T08:17:40.037Z,39.30
2018-06-10T08:20:15.236Z,39.30
2018-06-10T08:22:45.723Z,37.90
2018-06-10T08:25:17.119Z,39.10
2018-06-10T08:27:53.628Z,40.90
2018-06-10T08:30:25.309Z,43.50
2018-06-10T08:32:56.229Z,46.80
2018-06-10T08:35:27.432Z,45.40
2018-06-10T08:37:59.441Z,46.20
2018-06-10T08:40:31.298Z,48.40
2018-06-10T08:43:01.957Z,50.50
2018-06-10T08:45:32.632Z,48.00
2018-06-10T08:48:03.219Z,46.20
2018-06-10T08:50:33.993Z,44.50
2018-06-10T08:53:04.775Z,46.10
2018-06-10T08:55:35.765Z,44.40
2018-06-10T09:00:36.608Z,39.30
2018-06-10T09:03:07.396Z,38.80
2018-06-10T09:05:38.017Z,38.70
2018-06-10T09:08:09.009Z,41.50
2018-06-10T09:13:10.324Z,45.00
2018-06-10T09:15:40.993Z,43.20
2018-06-10T09:18:11.727Z,42.30
2018-06-10T09:20:42.583Z,40.90
2018-06-10T09:23:13.947Z,39.30
2018-06-10T09:25:48.784Z,39.10
2018-06-10T09:28:19.460Z,38.60
2018-06-10T09:30:50.244Z,37.30
2018-06-10T09:33:20.838Z,36.40
2018-06-10T09:35:52.097Z,36.40
2018-06-10T09:38:22.629Z,35.30
2018-06-10T09:40:53.739Z,35.90
2018-06-10T09:43:24.944Z,35.20
2018-06-10T09:45:56.107Z,36.70
2018-06-10T09:48:26.696Z,35.80
2018-06-10T09:50:57.951Z,37.60
2018-06-10T09:53:29.231Z,37.40
2018-06-10T09:56:00.050Z,38.10
2018-06-10T09:58:30.552Z,38.90
2018-06-10T10:01:01.591Z,40.40
2018-06-10T10:03:33.156Z,41.30
2018-06-10T10:06:04.003Z,39.70
2018-06-10T10:08:34.632Z,36.40
2018-06-10T10:11:05.256Z,35.60
2018-06-10T10:13:35.941Z,37.10
2018-06-10T10:16:06.560Z,35.80
2018-06-10T10:18:37.227Z,36.00
2018-06-10T10:21:08.305Z,35.80
2018-06-10T10:26:10.056Z,35.50
2018-06-10T10:28:40.634Z,37.40
2018-06-10T10:31:11.320Z,34.90
2018-06-10T10:33:41.853Z,35.20
2018-06-10T10:36:12.569Z,36.00
2018-06-10T10:38:43.257Z,37.30
2018-06-10T10:41:14.366Z,35.80
2018-06-10T10:43:44.940Z,34.60
2018-06-10T10:46:15.554Z,35.90
2018-06-10T10:48:46.492Z,36.50
2018-06-10T10:51:17.014Z,37.60
2018-06-10T10:53:47.589Z,39.00
2018-06-10T10:56:18.253Z,39.80
2018-06-10T10:58:48.869Z,38.90
2018-06-10T11:01:19.430Z,41.70
2018-06-10T11:03:50.069Z,40.90
2018-06-10T11:06:20.721Z,43.40
2018-06-10T11:08:51.541Z,41.30
2018-06-10T11:11:22.177Z,46.30
2018-06-10T11:13:52.796Z,45.80
2018-06-10T11:16:23.508Z,45.20
2018-06-10T11:18:54.181Z,45.50
2018-06-10T11:21:24.793Z,48.20
2018-06-10T11:23:55.471Z,47.90
2018-06-10T11:26:26.106Z,49.20
2018-06-10T11:28:56.939Z,46.40
2018-06-10T11:31:27.628Z,48.20
2018-06-10T11:33:58.349Z,48.80
2018-06-10T11:36:29.118Z,51.60
2018-06-10T11:38:59.870Z,54.40
2018-06-10T11:41:30.460Z,51.40
2018-06-10T11:44:01.117Z,53.90
2018-06-10T11:46:32.182Z,50.70
2018-06-10T11:49:02.878Z,50.90
2018-06-10T11:51:33.387Z,52.00
2018-06-10T11:54:04.558Z,51.70
2018-06-10T11:56:35.299Z,52.70
2018-06-10T11:59:05.789Z,53.40
2018-06-10T12:01:36.626Z,54.60
2018-06-10T12:04:07.257Z,55.40
2018-06-10T12:06:37.918Z,55.60
2018-06-10T12:09:09.252Z,55.80
2018-06-10T12:11:39.804Z,53.60
2018-06-10T12:14:10.547Z,55.20
2018-06-10T12:16:41.213Z,56.50
2018-06-10T12:19:12.001Z,57.40
2018-06-10T12:21:42.629Z,57.70
2018-06-10T12:24:13.338Z,59.00
2018-06-10T12:26:44.308Z,60.30
2018-06-10T12:29:14.859Z,61.60
2018-06-10T12:31:45.427Z,61.10
2018-06-10T12:34:16.289Z,61.30
2018-06-10T12:36:47.519Z,57.00
2018-06-10T12:39:18.155Z,56.90
2018-06-10T12:41:48.907Z,56.50
2018-06-10T12:44:19.837Z,59.20
2018-06-10T12:46:50.465Z,56.90
2018-06-10T12:49:21.143Z,54.90
2018-06-10T12:51:51.842Z,54.30
2018-06-10T12:54:22.520Z,50.70
2018-06-10T12:56:57.381Z,52.20
2018-06-10T12:59:27.932Z,52.60
2018-06-10T13:01:58.730Z,51.50
2018-06-10T13:04:29.482Z,51.30
2018-06-10T13:07:00.861Z,51.30
2018-06-10T13:09:31.481Z,53.90
2018-06-10T13:12:02.276Z,53.80
2018-06-10T13:14:32.875Z,54.80
2018-06-10T13:17:03.583Z,56.10
2018-06-10T13:19:34.113Z,55.30
2018-06-10T13:22:05.000Z,56.70
2018-06-10T13:24:35.808Z,55.10
2018-06-10T13:27:06.658Z,54.40
2018-06-10T13:29:37.284Z,54.90
2018-06-10T13:32:08.196Z,53.90
2018-06-10T13:34:39.046Z,54.70
2018-06-10T13:37:09.763Z,55.60
2018-06-10T13:42:10.740Z,52.80
2018-06-10T13:44:41.447Z,55.30
2018-06-10T13:49:42.290Z,55.00
2018-06-10T13:52:12.941Z,55.70
2018-06-10T13:54:43.476Z,54.60
2018-06-10T13:57:15.229Z,54.70
2018-06-10T13:59:45.959Z,56.40
2018-06-10T14:02:20.182Z,56.20
2018-06-10T14:04:50.913Z,59.30
2018-06-10T14:07:21.502Z,54.80
2018-06-10T14:09:52.303Z,52.90
2018-06-10T14:12:23.310Z,53.10
2018-06-10T14:14:53.917Z,54.00
2018-06-10T14:17:24.817Z,52.80
2018-06-10T14:19:55.438Z,51.50
2018-06-10T14:22:26.870Z,51.90
2018-06-10T14:24:57.706Z,53.30
2018-06-10T14:27:28.402Z,52.90
2018-06-10T14:29:59.053Z,51.30
2018-06-10T14:32:30.425Z,55.20
2018-06-10T14:35:01.070Z,54.60
2018-06-10T14:37:31.748Z,54.10
2018-06-10T14:40:02.264Z,59.30
2018-06-10T14:42:32.788Z,57.20
2018-06-10T14:45:03.640Z,55.20
2018-06-10T14:47:34.429Z,56.40
2018-06-10T14:50:05.049Z,58.90
2018-06-10T14:52:35.817Z,59.10
2018-06-10T14:55:06.521Z,58.00
2018-06-10T14:57:37.225Z,59.70
2018-06-10T15:00:08.009Z,66.40
2018-06-10T15:02:38.962Z,69.80
2018-06-10T15:05:09.505Z,72.60
2018-06-10T15:07:40.070Z,75.90
2018-06-10T15:10:10.693Z,77.40
2018-06-10T15:12:41.268Z,78.00
2018-06-10T15:15:11.925Z,79.30
2018-06-10T15:17:42.601Z,76.00
2018-06-10T15:20:13.205Z,78.30
2018-06-10T15:22:44.063Z,78.70
2018-06-10T15:25:14.725Z,77.90
2018-06-10T15:27:45.568Z,79.50
2018-06-10T15:30:16.314Z,79.10
2018-06-10T15:32:47.409Z,81.50
2018-06-10T15:35:18.091Z,79.00
2018-06-10T15:37:48.705Z,81.70
2018-06-10T15:40:19.451Z,83.10
2018-06-10T15:42:50.161Z,83.10
2018-06-10T15:45:20.772Z,85.20
2018-06-10T15:47:51.634Z,85.60
2018-06-10T15:50:22.401Z,84.70
2018-06-10T15:52:53.071Z,74.80
2018-06-10T15:55:23.936Z,75.00
2018-06-10T15:57:54.465Z,77.90
2018-06-10T16:00:25.143Z,78.40
2018-06-10T16:02:55.749Z,83.70
2018-06-10T16:05:26.458Z,85.10
2018-06-10T16:07:57.317Z,86.10
2018-06-10T16:10:28.012Z,87.30
2018-06-10T16:12:58.469Z,89.40
2018-06-10T16:15:29.080Z,89.60
2018-06-10T16:17:59.848Z,87.60
2018-06-10T16:20:30.534Z,90.60
2018-06-10T16:23:01.292Z,91.20
2018-06-10T16:25:31.925Z,91.70
2018-06-10T16:28:02.852Z,92.60
2018-06-10T16:30:33.389Z,92.90
2018-06-10T16:33:04.108Z,92.90
2018-06-10T16:35:34.765Z,93.70
2018-06-10T16:38:05.518Z,94.20
2018-06-10T16:40:36.224Z,94.20
2018-06-10T16:43:07.281Z,95.10
2018-06-10T16:45:38.004Z,95.30
2018-06-10T16:48:08.593Z,95.50
2018-06-10T16:55:39.994Z,97.10
2018-06-10T16:58:10.779Z,97.70
2018-06-10T17:00:41.617Z,98.20
2018-06-10T17:03:12.330Z,99.70
2018-06-10T17:05:43.050Z,98.50
2018-06-10T17:08:13.705Z,99.30
2018-06-10T17:10:44.834Z,99.40
2018-06-10T17:13:15.581Z,99.40
2018-06-10T17:15:46.604Z,99.30
2018-06-10T17:18:17.212Z,99.90
2018-06-10T17:20:47.989Z,99.90
2018-06-10T17:23:18.601Z,99.90
2018-06-10T17:25:49.154Z,99.90
2018-06-10T17:28:19.736Z,99.90
2018-06-10T17:30:50.398Z,99.90
2018-06-10T17:35:51.516Z,99.90
2018-06-10T17:38:22.305Z,99.90
2018-06-10T17:40:52.929Z,99.90
2018-06-10T17:43:23.772Z,99.90
2018-06-10T17:45:54.385Z,99.60
2018-06-10T17:48:25.111Z,97.80
2018-06-10T17:50:55.754Z,98.50
2018-06-10T17:53:26.528Z,98.30
2018-06-10T17:55:57.264Z,96.90
2018-06-10T17:58:27.895Z,96.20
2018-06-10T18:00:58.788Z,95.40
2018-06-10T18:03:29.689Z,95.10
2018-06-10T18:06:00.407Z,95.80
2018-06-10T18:08:31.153Z,96.50
2018-06-10T18:11:01.824Z,96.70
2018-06-10T18:13:32.565Z,97.50
2018-06-10T18:16:03.362Z,96.90
2018-06-10T18:18:34.409Z,96.90
2018-06-10T18:21:05.988Z,96.90
2018-06-10T18:23:36.791Z,96.80
2018-06-10T18:26:07.755Z,97.00
2018-06-10T18:28:38.835Z,98.90
2018-06-10T18:31:09.511Z,99.90
2018-06-10T18:33:40.437Z,99.40
2018-06-10T18:36:11.250Z,98.60
2018-06-10T18:38:42.033Z,98.20
2018-06-10T18:41:12.946Z,97.60
2018-06-10T18:43:43.523Z,97.50
2018-06-10T18:46:14.136Z,96.70
2018-06-10T18:51:15.414Z,97.80
2018-06-10T18:53:46.314Z,97.00
2018-06-10T18:56:16.908Z,97.70
2018-06-10T18:58:47.692Z,98.50
2018-06-10T19:01:18.530Z,98.50
2018-06-10T19:06:20.010Z,97.60
2018-06-10T19:11:20.978Z,98.90
2018-06-10T19:13:51.698Z,99.50
2018-06-10T19:16:22.768Z,99.20
2018-06-10T19:18:53.442Z,99.30
2018-06-10T19:21:24.193Z,99.40
2018-06-10T19:23:54.964Z,99.90
2018-06-10T19:26:26.353Z,99.90
2018-06-10T19:28:56.960Z,98.60
2018-06-10T19:31:27.611Z,99.40
2018-06-10T19:33:58.486Z,99.00
2018-06-10T19:36:29.184Z,99.90
2018-06-10T19:39:00.045Z,99.10
2018-06-10T19:41:30.765Z,99.00
2018-06-10T19:44:01.816Z,98.90
2018-06-10T19:46:32.488Z,99.40
2018-06-10T19:49:03.209Z,98.50
2018-06-10T19:54:05.006Z,99.60
2018-06-10T19:56:35.925Z,99.40
2018-06-10T20:01:37.199Z,98.00
2018-06-10T20:04:07.953Z,99.60
2018-06-10T20:06:38.746Z,99.30
2018-06-10T20:09:09.839Z,99.40
2018-06-10T20:11:40.540Z,99.60
2018-06-10T20:16:41.795Z,99.90
2018-06-10T20:19:12.689Z,99.60
2018-06-10T20:21:43.504Z,99.10
2018-06-10T20:24:14.404Z,99.80
2018-06-10T20:26:45.214Z,99.90
2018-06-10T20:29:16.327Z,99.90
2018-06-10T20:31:46.947Z,99.90
2018-06-10T20:34:17.645Z,99.90
2018-06-10T20:36:48.420Z,99.90
2018-06-10T20:39:18.985Z,99.90
2018-06-10T20:41:49.820Z,99.90
2018-06-10T20:44:20.930Z,99.90
2018-06-10T20:46:51.604Z,99.90
2018-06-10T20:51:52.551Z,99.90
2018-06-10T20:54:23.369Z,99.90
2018-06-10T20:56:54.114Z,99.90
2018-06-10T20:59:24.822Z,99.90
2018-06-10T21:01:56.254Z,99.90
2018-06-10T21:06:58.003Z,99.90
2018-06-10T21:09:28.736Z,99.90
2018-06-10T21:11:59.486Z,99.90
2018-06-10T21:14:30.515Z,99.90
2018-06-10T21:17:01.222Z,99.90
2018-06-10T21:19:31.977Z,99.90
2018-06-10T21:24:33.316Z,99.30
2018-06-10T21:27:04.132Z,99.60
2018-06-10T21:29:35.362Z,99.90
2018-06-10T21:32:05.951Z,99.90
2018-06-10T21:37:06.926Z,99.90
2018-06-10T21:39:37.564Z,99.90
2018-06-10T21:42:08.233Z,99.90
2018-06-10T21:44:38.963Z,99.90
2018-06-10T21:47:09.949Z,99.90
2018-06-10T21:49:40.563Z,99.90
2018-06-10T21:52:11.139Z,99.90
2018-06-10T21:54:41.889Z,99.90
2018-06-10T21:57:12.497Z,99.90
2018-06-10T22:02:13.528Z,99.90
2018-06-10T22:04:49.226Z,99.90
2018-06-10T22:07:19.851Z,99.90
2018-06-10T22:09:50.573Z,99.90
2018-06-10T22:12:21.406Z,99.90
2018-06-10T22:14:52.377Z,99.90
2018-06-10T22:17:23.051Z,99.90
2018-06-10T22:19:53.742Z,99.90
2018-06-10T22:24:54.562Z,99.90
2018-06-10T22:27:25.094Z,99.90
2018-06-10T22:29:55.830Z,99.90
2018-06-10T22:32:26.576Z,99.90
2018-06-10T22:34:57.354Z,99.90
2018-06-10T22:37:28.384Z,99.90
2018-06-10T22:39:59.098Z,99.90
2018-06-10T22:42:29.820Z,99.90
2018-06-10T22:45:00.438Z,99.90
2018-06-10T22:50:01.178Z,99.90
2018-06-10T22:55:02.784Z,99.90
2018-06-10T22:57:33.500Z,99.90
2018-06-10T23:00:04.641Z,99.90
2018-06-10T23:05:05.754Z,99.90
2018-06-10T23:07:36.455Z,99.90
2018-06-10T23:10:07.346Z,99.90
2018-06-10T23:12:37.985Z,99.90
2018-06-10T23:17:38.920Z,99.90
2018-06-10T23:20:09.580Z,99.90
2018-06-10T23:25:10.438Z,99.90
2018-06-10T23:27:41.052Z,99.90
2018-06-10T23:30:11.860Z,99.90
2018-06-10T23:32:42.702Z,99.90
2018-06-10T23:35:13.969Z,99.90
2018-06-10T23:37:44.645Z,99.90
2018-06-10T23:40:15.227Z,99.90
2018-06-10T23:42:45.764Z,99.90
2018-06-10T23:45:20.793Z,99.90
2018-06-10T23:47:51.328Z,99.90
2018-06-10T23:50:21.951Z,99.90
2018-06-10T23:52:52.450Z,99.90
2018-06-10T23:55:22.962Z,99.90
2018-06-10T23:57:53.771Z,99.90
